Time;durP1;ratioP1;P1;durP2;ratioP2;P2;SDS_P1;SDS_P2;PMS_P1;PMS_P2;Temp;Humidity;BMP_temperature;BMP_pressure;BME280_temperature;BME280_humidity;BME280_pressure;Samples;Min_cycle;Max_cycle;Signal;HPM_P1;HPM_P2
2023/10/18 00:01:54;;;;;;;3.25;1.90;;;16.10;48.60;;;;;;5127829;27;45309;-69
2023/10/18 00:04:23;;;;;;;2.08;1.92;;;16.10;48.60;;;;;;5127854;27;45387;-68
2023/10/18 00:06:55;;;;;;;2.30;1.98;;;16.10;48.60;;;;;;5127427;27;45400;-68
2023/10/18 00:09:45;;;;;;;2.75;1.85;;;16.10;48.50;;;;;;5127240;27;45581;-69
2023/10/18 00:12:13;;;;;;;2.22;2.00;;;16.00;48.50;;;;;;5127614;27;45251;-68
2023/10/18 00:14:45;;;;;;;2.72;2.10;;;16.00;48.60;;;;;;5127908;27;45341;-68
2023/10/18 00:17:12;;;;;;;2.97;2.30;;;16.00;48.60;;;;;;5127121;27;46360;-68
2023/10/18 00:19:39;;;;;;;2.47;1.90;;;16.00;48.60;;;;;;5127443;27;45310;-68
2023/10/18 00:22:07;;;;;;;2.47;2.20;;;16.00;48.60;;;;;;5127687;27;45553;-68
2023/10/18 00:24:34;;;;;;;4.28;2.22;;;15.90;48.50;;;;;;5127581;27;45442;-68
2023/10/18 00:27:03;;;;;;;3.72;2.60;;;15.90;48.50;;;;;;5126321;27;46573;-68
2023/10/18 00:29:30;;;;;;;2.38;2.17;;;15.90;48.60;;;;;;5126541;27;45298;-68
2023/10/18 00:31:59;;;;;;;2.70;1.92;;;15.90;48.60;;;;;;5119856;27;45393;-68
2023/10/18 00:34:26;;;;;;;2.00;1.80;;;15.90;48.60;;;;;;5106916;27;45354;-68
2023/10/18 00:36:54;;;;;;;2.70;2.25;;;15.90;48.70;;;;;;5120652;27;46670;-68
2023/10/18 00:39:21;;;;;;;3.17;1.90;;;15.90;48.60;;;;;;5127208;27;45195;-68
2023/10/18 00:41:52;;;;;;;1.80;1.63;;;15.90;48.60;;;;;;5127249;27;45431;-68
2023/10/18 00:44:21;;;;;;;2.63;2.05;;;15.90;48.60;;;;;;5127419;27;45562;-70
2023/10/18 00:46:48;;;;;;;3.95;2.40;;;15.90;48.60;;;;;;5126866;27;45546;-70
2023/10/18 00:49:16;;;;;;;2.65;1.73;;;15.80;48.50;;;;;;5126927;27;45358;-68
2023/10/18 00:51:44;;;;;;;2.58;1.88;;;15.80;48.50;;;;;;5126912;27;45330;-69
2023/10/18 00:54:12;;;;;;;2.10;1.90;;;15.80;48.50;;;;;;5127178;27;45574;-68
2023/10/18 00:56:40;;;;;;;1.95;1.85;;;15.80;48.50;;;;;;5126789;27;45427;-68
2023/10/18 00:59:07;;;;;;;2.08;1.88;;;15.80;48.60;;;;;;5126900;27;45329;-68
2023/10/18 01:01:36;;;;;;;3.30;1.98;;;15.80;48.50;;;;;;5126930;27;45228;-70
2023/10/18 01:04:05;;;;;;;2.67;2.03;;;15.80;48.60;;;;;;5127414;27;45286;-68
2023/10/18 01:06:34;;;;;;;2.15;1.95;;;15.80;48.60;;;;;;5130265;27;46372;-68
2023/10/18 01:09:00;;;;;;;2.88;2.00;;;15.70;48.50;;;;;;5130423;27;45251;-70
2023/10/18 01:11:28;;;;;;;2.40;1.92;;;15.70;48.50;;;;;;5130231;27;45343;-68
2023/10/18 01:13:55;;;;;;;1.83;1.70;;;15.70;48.50;;;;;;5130408;27;45726;-70
2023/10/18 01:16:23;;;;;;;2.42;1.80;;;15.70;48.50;;;;;;5129164;27;45313;-69
2023/10/18 01:18:50;;;;;;;2.95;2.13;;;15.70;48.50;;;;;;5129932;27;45192;-69
2023/10/18 01:21:18;;;;;;;1.98;1.70;;;15.70;48.50;;;;;;5130384;27;45493;-69
2023/10/18 01:23:50;;;;;;;4.00;1.85;;;15.70;48.50;;;;;;5130241;27;45352;-69
2023/10/18 01:26:19;;;;;;;1.80;1.70;;;15.70;48.60;;;;;;5129735;27;47966;-69
2023/10/18 01:28:46;;;;;;;2.33;2.13;;;15.60;48.70;;;;;;5129870;27;45256;-69
2023/10/18 01:31:13;;;;;;;2.40;2.20;;;15.70;48.50;;;;;;5128954;27;45298;-69
2023/10/18 01:33:42;;;;;;;2.40;2.20;;;15.60;48.50;;;;;;5109140;27;45248;-69
2023/10/18 01:36:11;;;;;;;2.55;2.35;;;15.60;48.50;;;;;;5117150;27;47677;-69
2023/10/18 01:38:38;;;;;;;2.05;1.85;;;15.60;48.40;;;;;;5129852;27;45322;-69
2023/10/18 01:41:09;;;;;;;2.38;2.17;;;15.60;48.60;;;;;;5129781;27;45410;-70
2023/10/18 01:43:38;;;;;;;2.47;2.20;;;15.60;48.50;;;;;;5130058;27;45360;-69
2023/10/18 01:46:08;;;;;;;2.47;2.10;;;15.60;48.60;;;;;;5129649;27;47519;-69
2023/10/18 01:48:37;;;;;;;2.42;1.73;;;15.60;48.50;;;;;;5129605;27;45383;-69
2023/10/18 01:51:06;;;;;;;1.65;1.52;;;15.60;48.40;;;;;;5129721;27;45377;-69
2023/10/18 01:53:33;;;;;;;2.92;1.95;;;15.50;48.40;;;;;;5129968;27;45466;-69
2023/10/18 01:56:01;;;;;;;1.80;1.70;;;15.60;48.60;;;;;;5129518;27;46398;-70
2023/10/18 01:58:29;;;;;;;2.25;1.98;;;15.50;49.10;;;;;;5129517;27;45229;-70
2023/10/18 02:00:57;;;;;;;3.38;2.13;;;15.50;48.50;;;;;;5129878;27;45132;-70
2023/10/18 02:03:24;;;;;;;2.38;1.65;;;15.50;48.40;;;;;;5129758;27;45507;-70
2023/10/18 02:05:51;;;;;;;2.88;1.95;;;15.50;48.50;;;;;;5128804;27;46376;-69
2023/10/18 02:08:19;;;;;;;2.13;1.83;;;15.50;48.40;;;;;;5128770;27;45350;-70
2023/10/18 02:10:49;;;;;;;2.58;2.03;;;15.50;48.50;;;;;;5129277;27;45315;-70
2023/10/18 02:13:16;;;;;;;1.90;1.65;;;15.50;48.40;;;;;;5129497;27;45556;-69
2023/10/18 02:15:48;;;;;;;1.83;1.73;;;15.40;48.40;;;;;;5128543;27;45263;-70
2023/10/18 02:18:16;;;;;;;2.10;1.88;;;15.40;48.50;;;;;;5129230;27;45402;-70
2023/10/18 02:20:50;;;;;;;2.17;2.00;;;15.50;48.50;;;;;;5129368;27;45305;-70
2023/10/18 02:23:17;;;;;;;3.03;1.80;;;15.50;48.40;;;;;;5129370;27;45361;-70
2023/10/18 02:25:44;;;;;;;2.08;1.88;;;15.50;48.50;;;;;;5128969;27;46379;-70
2023/10/18 02:28:22;;;;;;;1.95;1.80;;;15.40;48.40;;;;;;5129116;27;45317;-70
2023/10/18 02:30:55;;;;;;;3.03;2.10;;;15.40;48.40;;;;;;5129097;27;45349;-70
2023/10/18 02:33:33;;;;;;;3.78;2.20;;;15.40;48.50;;;;;;5109568;27;45336;-70
2023/10/18 02:36:00;;;;;;;2.72;2.20;;;15.40;48.50;;;;;;5114889;27;45457;-70
2023/10/18 02:38:27;;;;;;;1.95;1.85;;;15.40;48.50;;;;;;5129281;27;45324;-70
2023/10/18 02:40:56;;;;;;;3.33;2.03;;;15.40;48.50;;;;;;5129136;27;45197;-70
2023/10/18 02:43:24;;;;;;;2.67;1.92;;;15.40;48.60;;;;;;5129080;27;45365;-69
2023/10/18 02:45:52;;;;;;;2.78;2.30;;;15.30;48.60;;;;;;5128554;27;46821;-70
2023/10/18 02:48:24;;;;;;;4.30;1.77;;;15.30;48.60;;;;;;5128679;27;45215;-69
2023/10/18 02:50:54;;;;;;;2.65;1.92;;;15.30;48.60;;;;;;5128650;27;45364;-70
2023/10/18 02:53:21;;;;;;;2.40;1.73;;;15.30;48.60;;;;;;5128923;27;45110;-69
2023/10/18 02:55:55;;;;;;;2.40;1.67;;;15.30;48.60;;;;;;5128390;27;46359;-69
2023/10/18 02:58:28;;;;;;;2.40;2.20;;;15.30;49.10;;;;;;5128553;27;45272;-69
2023/10/18 03:00:56;;;;;;;2.17;1.95;;;15.30;48.60;;;;;;5128564;27;45246;-69
2023/10/18 03:03:23;;;;;;;2.95;2.08;;;15.30;48.60;;;;;;5128932;27;45458;-69
2023/10/18 03:05:51;;;;;;;2.47;2.22;;;15.30;48.60;;;;;;5128264;27;45425;-69
2023/10/18 03:08:20;;;;;;;2.88;2.25;;;15.30;48.60;;;;;;5128362;27;45316;-69
2023/10/18 03:10:51;;;;;;;2.80;2.20;;;15.20;48.60;;;;;;5127769;27;45314;-70
2023/10/18 03:13:18;;;;;;;2.53;2.10;;;15.20;48.60;;;;;;5128022;27;45430;-69
2023/10/18 03:16:03;;;;;;;2.70;2.22;;;15.20;48.60;;;;;;5127708;27;48133;-69
2023/10/18 03:18:30;;;;;;;3.10;2.05;;;15.20;48.60;;;;;;5127448;27;45347;-69
2023/10/18 03:20:57;;;;;;;2.90;1.58;;;15.20;48.60;;;;;;5128422;27;45365;-69
2023/10/18 03:23:26;;;;;;;2.38;2.20;;;15.20;48.70;;;;;;5128417;27;45682;-69
2023/10/18 03:26:00;;;;;;;2.58;2.00;;;15.20;48.60;;;;;;5128385;27;46497;-69
2023/10/18 03:28:34;;;;;;;2.47;2.03;;;15.20;48.60;;;;;;5127014;27;45345;-69
2023/10/18 03:31:04;;;;;;;2.92;2.00;;;15.20;48.70;;;;;;5128238;27;45372;-69
2023/10/18 03:33:32;;;;;;;2.80;1.90;;;15.20;48.60;;;;;;5107260;27;45260;-69
2023/10/18 03:36:06;;;;;;;2.53;1.80;;;15.20;48.60;;;;;;5114005;27;45520;-69
2023/10/18 03:38:39;;;;;;;2.53;2.22;;;15.10;48.70;;;;;;5127868;27;45486;-69
2023/10/18 03:41:10;;;;;;;3.78;2.60;;;15.20;48.70;;;;;;5128232;27;45333;-69
2023/10/18 03:43:37;;;;;;;3.08;2.05;;;15.10;48.70;;;;;;5128249;27;45461;-69
2023/10/18 03:46:13;;;;;;;3.10;2.10;;;15.20;48.60;;;;;;5127821;27;45965;-69
2023/10/18 03:48:46;;;;;;;3.45;2.22;;;15.20;48.70;;;;;;5127817;27;45330;-69
2023/10/18 03:51:20;;;;;;;2.58;2.05;;;15.20;48.70;;;;;;5128105;27;45215;-69
2023/10/18 03:53:52;;;;;;;2.30;1.80;;;15.10;48.60;;;;;;5128099;27;45388;-69
2023/10/18 03:56:21;;;;;;;2.63;1.60;;;15.10;48.60;;;;;;5127971;27;46535;-69
2023/10/18 03:59:00;;;;;;;3.95;2.20;;;15.10;48.70;;;;;;5127561;27;45227;-69
2023/10/18 04:01:28;;;;;;;3.28;1.65;;;15.10;48.70;;;;;;5127860;27;45334;-69
2023/10/18 04:03:56;;;;;;;2.35;1.70;;;15.20;48.60;;;;;;5127947;27;45367;-69
2023/10/18 04:06:28;;;;;;;2.67;2.22;;;15.10;48.60;;;;;;5127353;27;45346;-69
2023/10/18 04:09:15;;;;;;;3.17;2.10;;;15.10;48.70;;;;;;5127543;27;45369;-69
2023/10/18 04:11:43;;;;;;;2.97;2.20;;;15.10;48.70;;;;;;5127511;27;45397;-69
2023/10/18 04:14:16;;;;;;;2.13;1.92;;;15.10;48.70;;;;;;5127891;27;45261;-69
2023/10/18 04:16:43;;;;;;;2.53;1.77;;;15.10;48.70;;;;;;5127166;27;45643;-69
2023/10/18 04:19:10;;;;;;;2.42;2.22;;;15.10;48.70;;;;;;5127581;27;45235;-69
2023/10/18 04:21:37;;;;;;;1.80;1.60;;;15.10;48.70;;;;;;5127473;27;45133;-69
2023/10/18 04:24:06;;;;;;;2.40;2.15;;;15.10;48.70;;;;;;5126974;27;45494;-70
2023/10/18 04:26:35;;;;;;;3.50;2.00;;;15.10;48.70;;;;;;5119463;27;46418;-69
2023/10/18 04:29:10;;;;;;;1.90;1.77;;;15.10;48.90;;;;;;5117000;27;45465;-71
2023/10/18 04:31:37;;;;;;;5.32;2.53;;;15.10;48.90;;;;;;5115514;27;45279;-71
2023/10/18 04:34:06;;;;;;;2.88;2.00;;;15.10;48.90;;;;;;5121851;27;45378;-71
2023/10/18 04:36:33;;;;;;;3.90;2.00;;;15.00;48.90;;;;;;5124026;27;45316;-71
2023/10/18 04:39:05;;;;;;;2.20;1.75;;;15.00;48.80;;;;;;5128746;27;45264;-71
2023/10/18 04:41:33;;;;;;;2.25;2.05;;;15.10;48.90;;;;;;5131211;27;45418;-71
2023/10/18 04:44:05;;;;;;;3.03;2.13;;;15.10;48.90;;;;;;5128339;27;45588;-71
2023/10/18 04:46:32;;;;;;;2.88;2.10;;;15.10;49.50;;;;;;5130606;27;46637;-71
2023/10/18 04:49:00;;;;;;;1.77;1.67;;;15.10;48.90;;;;;;5130570;27;45260;-70
2023/10/18 04:51:28;;;;;;;2.08;1.88;;;15.10;48.90;;;;;;5130729;27;44715;-71
2023/10/18 04:53:57;;;;;;;2.45;1.63;;;15.10;48.80;;;;;;5130358;27;45683;-70
2023/10/18 04:56:29;;;;;;;2.17;1.88;;;15.10;48.90;;;;;;5122807;27;46590;-70
2023/10/18 04:58:59;;;;;;;2.20;2.00;;;15.10;48.80;;;;;;5130509;27;45396;-70
2023/10/18 05:01:34;;;;;;;2.35;2.10;;;15.10;49.40;;;;;;5125049;27;45315;-70
2023/10/18 05:04:18;;;;;;;3.97;1.95;;;15.20;49.40;;;;;;5129626;27;45317;-70
2023/10/18 05:06:45;;;;;;;4.25;2.30;;;15.10;48.80;;;;;;5130366;27;45762;-70
2023/10/18 05:09:12;;;;;;;2.28;2.08;;;15.10;49.00;;;;;;5130785;27;45236;-70
2023/10/18 05:11:47;;;;;;;3.25;2.28;;;15.10;49.00;;;;;;5130630;27;45511;-69
2023/10/18 05:14:35;;;;;;;3.35;2.42;;;15.10;49.70;;;;;;5119803;27;45540;-70
2023/10/18 05:17:04;;;;;;;5.25;2.88;;;15.00;49.70;;;;;;5128873;27;46328;-70
2023/10/18 05:19:37;;;;;;;2.97;2.10;;;15.00;49.10;;;;;;5116807;27;45342;-69
2023/10/18 05:22:05;;;;;;;2.60;2.40;;;15.00;49.30;;;;;;5109010;27;45240;-70
2023/10/18 05:24:37;;;;;;;3.85;2.50;;;15.00;49.20;;;;;;5109066;27;45237;-71
2023/10/18 05:27:05;;;;;;;3.80;2.25;;;15.00;49.30;;;;;;5109422;27;45468;-69
2023/10/18 05:29:43;;;;;;;2.97;2.60;;;15.00;49.20;;;;;;5129168;27;45266;-69
2023/10/18 05:32:13;;;;;;;3.03;2.30;;;15.00;49.20;;;;;;5125276;27;45371;-69
2023/10/18 05:34:51;;;;;;;4.03;2.00;;;15.00;49.30;;;;;;5128944;27;45310;-70
2023/10/18 05:37:19;;;;;;;3.80;2.55;;;15.00;49.10;;;;;;5129553;27;46916;-70
2023/10/18 05:40:42;;;;;;;2.35;2.15;;;15.00;49.00;;;;;;5128272;27;45475;-70
2023/10/18 05:42:49;;;;;;;2.63;2.15;;;15.00;49.10;;;;;;5129631;27;45385;-71
2023/10/18 05:45:17;;;;;;;3.15;2.20;;;15.00;49.10;;;;;;5127325;27;45567;-71
2023/10/18 05:47:48;;;;;;;2.70;2.30;;;15.00;49.30;;;;;;5108974;27;46994;-71
2023/10/18 05:50:17;;;;;;;2.90;2.45;;;15.00;49.20;;;;;;5108383;27;45370;-71
2023/10/18 05:52:49;;;;;;;3.45;2.72;;;15.00;49.30;;;;;;5127799;27;45271;-71
2023/10/18 05:55:16;;;;;;;5.40;2.45;;;15.00;49.30;;;;;;5129678;27;45375;-70
2023/10/18 05:57:45;;;;;;;2.60;2.40;;;15.00;49.30;;;;;;5129570;27;45528;-70
2023/10/18 06:00:17;;;;;;;2.50;2.08;;;15.00;49.40;;;;;;5124929;27;45297;-71
2023/10/18 06:02:47;;;;;;;3.15;2.30;;;15.00;50.00;;;;;;5107912;27;45440;-71
2023/10/18 06:05:14;;;;;;;2.35;2.15;;;14.90;49.40;;;;;;5123950;27;45321;-70
2023/10/18 06:07:41;;;;;;;4.03;2.47;;;15.00;49.40;;;;;;5128439;27;46930;-70
2023/10/18 06:10:16;;;;;;;3.50;2.40;;;15.00;49.40;;;;;;5123764;27;45366;-71
2023/10/18 06:12:46;;;;;;;3.88;2.55;;;15.00;49.40;;;;;;5108605;27;45369;-70
2023/10/18 06:15:14;;;;;;;2.60;2.40;;;15.00;49.50;;;;;;5119929;27;45418;-71
2023/10/18 06:17:53;;;;;;;2.53;2.17;;;14.90;49.50;;;;;;5118637;27;46652;-71
2023/10/18 06:20:28;;;;;;;5.00;2.53;;;14.90;49.50;;;;;;5129127;27;45468;-71
2023/10/18 06:23:07;;;;;;;3.20;2.55;;;14.90;49.50;;;;;;5116050;27;45254;-70
2023/10/18 06:25:37;;;;;;;3.00;2.65;;;14.90;49.50;;;;;;5126649;27;45410;-71
2023/10/18 06:28:07;;;;;;;3.38;2.80;;;14.90;50.00;;;;;;5128527;27;47867;-70
2023/10/18 06:30:39;;;;;;;3.03;2.60;;;14.90;49.40;;;;;;5107914;27;45285;-70
2023/10/18 06:33:09;;;;;;;3.00;2.60;;;14.90;49.60;;;;;;5124274;27;45205;-70
2023/10/18 06:35:51;;;;;;;3.20;2.40;;;14.90;49.50;;;;;;5127159;27;45430;-70
2023/10/18 06:38:18;;;;;;;2.45;2.25;;;14.90;49.60;;;;;;5113184;27;46187;-70
2023/10/18 06:40:51;;;;;;;2.92;2.50;;;14.90;49.60;;;;;;5126931;27;45381;-72
2023/10/18 06:43:20;;;;;;;6.25;2.97;;;14.90;49.60;;;;;;5128055;27;45314;-70
2023/10/18 06:45:48;;;;;;;8.60;2.75;;;14.90;49.80;;;;;;5125897;27;45363;-74
2023/10/18 06:48:16;;;;;;;2.80;2.35;;;14.90;49.70;;;;;;5123694;27;45397;-73
2023/10/18 06:50:46;;;;;;;2.67;2.20;;;14.90;49.60;;;;;;5126204;27;45384;-73
2023/10/18 06:53:14;;;;;;;2.80;2.60;;;15.00;49.40;;;;;;5127218;27;45297;-77
2023/10/18 06:55:45;;;;;;;2.97;2.00;;;15.00;49.40;;;;;;5124617;27;45204;-73
2023/10/18 06:58:22;;;;;;;3.63;2.30;;;15.00;49.50;;;;;;5128842;27;46398;-75
2023/10/18 07:00:52;;;;;;;2.67;2.47;;;15.00;49.40;;;;;;5128268;27;45341;-73
2023/10/18 07:03:24;;;;;;;2.88;2.58;;;15.00;49.40;;;;;;5126570;27;45278;-72
2023/10/18 07:05:54;;;;;;;2.70;2.45;;;15.00;49.40;;;;;;5128051;27;45253;-74
2023/10/18 07:08:21;;;;;;;3.47;2.92;;;15.00;49.30;;;;;;5128053;27;47316;-73
2023/10/18 07:10:54;;;;;;;3.58;2.28;;;15.00;49.30;;;;;;5128348;27;45237;-73
2023/10/18 07:13:32;;;;;;;2.80;2.60;;;15.00;49.30;;;;;;5120138;27;45351;-74
2023/10/18 07:16:01;;;;;;;4.60;3.08;;;15.00;49.30;;;;;;5128187;27;45441;-74
2023/10/18 07:18:28;;;;;;;3.47;2.60;;;15.10;49.30;;;;;;5124074;27;45463;-76
2023/10/18 07:21:05;;;;;;;3.30;2.63;;;15.00;49.90;;;;;;5118752;27;45395;-75
2023/10/18 07:23:36;;;;;;;3.60;2.50;;;15.10;49.30;;;;;;5127826;27;45352;-76
2023/10/18 07:26:03;;;;;;;3.05;2.40;;;15.10;49.30;;;;;;5120477;27;45271;-74
2023/10/18 07:28:35;;;;;;;3.65;2.47;;;15.00;49.20;;;;;;5121296;27;46550;-74
2023/10/18 07:31:08;;;;;;;3.10;2.10;;;15.00;49.30;;;;;;5128806;27;45198;-74
2023/10/18 07:33:41;;;;;;;2.65;2.35;;;15.10;49.30;;;;;;5119642;27;45307;-75
2023/10/18 07:36:11;;;;;;;2.80;2.50;;;15.10;49.20;;;;;;5127185;27;45339;-73
2023/10/18 07:38:46;;;;;;;4.20;2.28;;;15.10;49.20;;;;;;5122591;27;45507;-75
2023/10/18 07:41:13;;;;;;;2.63;2.20;;;15.10;49.30;;;;;;5127198;27;45315;-74
2023/10/18 07:43:41;;;;;;;3.30;1.85;;;15.10;49.30;;;;;;5123686;27;45768;-73
2023/10/18 07:46:16;;;;;;;2.72;2.53;;;15.10;49.30;;;;;;5116423;27;45343;-72
2023/10/18 07:48:47;;;;;;;2.17;1.98;;;15.10;49.20;;;;;;5123744;27;47174;-72
2023/10/18 07:51:24;;;;;;;2.40;2.10;;;15.10;49.30;;;;;;5127810;27;45259;-73
2023/10/18 07:53:53;;;;;;;2.85;2.50;;;15.10;49.20;;;;;;5127389;27;45315;-72
2023/10/18 07:56:26;;;;;;;2.65;2.28;;;15.20;49.30;;;;;;5127962;27;45310;-72
2023/10/18 07:58:55;;;;;;;2.30;2.10;;;15.10;49.30;;;;;;5127325;27;46429;-73
2023/10/18 08:04:03;;;;;;;3.70;2.90;;;15.10;49.20;;;;;;5125454;27;45506;-73
2023/10/18 08:06:33;;;;;;;2.83;2.50;;;15.10;49.20;;;;;;5123661;27;45638;-72
2023/10/18 08:09:05;;;;;;;3.35;2.63;;;15.20;49.20;;;;;;5106095;27;45803;-71
2023/10/18 08:11:34;;;;;;;2.55;2.20;;;15.10;49.20;;;;;;5124242;27;45307;-72
2023/10/18 08:14:04;;;;;;;2.45;2.25;;;15.20;49.30;;;;;;5128894;27;45268;-72
2023/10/18 08:16:43;;;;;;;2.33;2.13;;;15.10;49.90;;;;;;5131053;27;45326;-72
2023/10/18 08:19:11;;;;;;;3.63;2.65;;;15.20;49.40;;;;;;5129956;27;45386;-73
2023/10/18 08:21:39;;;;;;;4.43;2.58;;;15.20;49.30;;;;;;5129104;27;45421;-72
2023/10/18 08:24:14;;;;;;;2.00;1.75;;;15.20;49.30;;;;;;5130163;27;45369;-72
2023/10/18 08:26:47;;;;;;;2.75;2.55;;;15.20;49.30;;;;;;5127756;27;45417;-73
2023/10/18 08:29:14;;;;;;;3.97;2.78;;;15.20;49.30;;;;;;5110052;27;46490;-76
2023/10/18 08:31:44;;;;;;;4.57;2.35;;;15.20;49.60;;;;;;5117001;27;45322;-76
2023/10/18 08:34:15;;;;;;;4.03;2.75;;;15.20;49.80;;;;;;5130025;27;45560;-77
2023/10/18 08:36:44;;;;;;;3.00;2.40;;;15.30;49.90;;;;;;5130630;27;45313;-79
2023/10/18 08:39:12;;;;;;;2.80;2.38;;;15.30;50.00;;;;;;5129556;27;46361;-78
2023/10/18 08:41:44;;;;;;;7.38;2.88;;;15.30;50.00;;;;;;5129821;27;45429;-76
2023/10/18 08:44:18;;;;;;;3.63;2.58;;;15.40;50.10;;;;;;5130842;27;45546;-74
2023/10/18 08:46:52;;;;;;;4.20;2.60;;;15.40;50.00;;;;;;5128749;27;45320;-76
2023/10/18 08:49:21;;;;;;;4.22;2.20;;;15.50;50.20;;;;;;5109545;27;46723;-75
2023/10/18 08:51:55;;;;;;;4.93;2.63;;;15.50;50.20;;;;;;5122563;27;45541;-73
2023/10/18 08:54:22;;;;;;;3.08;2.60;;;15.50;50.40;;;;;;5125891;27;45401;-73
2023/10/18 08:56:49;;;;;;;4.15;3.10;;;15.60;50.30;;;;;;5110437;27;45457;-74
2023/10/18 08:59:20;;;;;;;6.38;2.88;;;15.60;50.20;;;;;;5116277;27;45534;-75
2023/10/18 09:04:28;;;;;;;7.88;2.97;;;15.70;50.10;;;;;;5121107;27;45421;-74
2023/10/18 09:06:55;;;;;;;3.42;2.60;;;15.70;50.10;;;;;;5130203;27;45503;-73
2023/10/18 09:09:22;;;;;;;3.55;2.65;;;15.80;50.20;;;;;;5120373;27;46673;-73
2023/10/18 09:11:48;;;;;;;5.97;3.00;;;15.80;50.30;;;;;;5129872;27;45654;-72
2023/10/18 09:14:15;;;;;;;5.13;2.90;;;15.80;50.20;;;;;;5120068;27;45509;-76
2023/10/18 09:16:42;;;;;;;3.90;3.00;;;15.90;50.20;;;;;;5126313;27;45618;-75
2023/10/18 09:19:09;;;;;;;4.40;2.65;;;15.90;50.20;;;;;;5119078;27;45543;-72
2023/10/18 09:21:44;;;;;;;7.00;2.90;;;15.90;50.20;;;;;;5109024;27;45342;-71
2023/10/18 09:24:13;;;;;;;5.25;2.92;;;16.00;50.30;;;;;;5119226;27;45602;-76
2023/10/18 09:26:43;;;;;;;5.32;2.92;;;16.00;50.50;;;;;;5127995;27;45573;-74
2023/10/18 09:29:10;;;;;;;7.68;3.00;;;16.10;50.40;;;;;;5128428;27;45526;-75
2023/10/18 09:31:51;;;;;;;7.13;2.63;;;16.10;50.20;;;;;;5129510;27;45941;-74
2023/10/18 09:34:19;;;;;;;4.57;2.30;;;16.10;50.00;;;;;;5129674;27;45488;-76
2023/10/18 09:36:53;;;;;;;2.83;2.53;;;16.10;49.70;;;;;;5114069;27;45427;-73
2023/10/18 09:39:24;;;;;;;5.43;2.90;;;16.10;49.70;;;;;;5126420;27;45382;-73
2023/10/18 09:41:51;;;;;;;5.45;2.70;;;16.10;49.80;;;;;;5120079;27;45456;-70
2023/10/18 09:44:18;;;;;;;3.97;3.00;;;16.10;49.70;;;;;;5112764;27;45401;-77
2023/10/18 09:46:48;;;;;;;4.07;2.60;;;16.20;49.70;;;;;;5125014;27;45252;-71
2023/10/18 09:49:21;;;;;;;6.18;2.97;;;16.20;49.60;;;;;;5108334;27;45557;-72
2023/10/18 09:51:53;;;;;;;5.93;3.05;;;16.20;49.70;;;;;;5108928;27;45381;-74
2023/10/18 09:54:22;;;;;;;8.68;3.50;;;16.30;49.60;;;;;;5109160;27;45250;-71
2023/10/18 09:56:53;;;;;;;4.38;3.22;;;16.30;49.70;;;;;;5129358;27;45564;-72
2023/10/18 09:59:26;;;;;;;5.10;3.50;;;16.30;49.80;;;;;;5123249;27;46682;-70
2023/10/18 10:02:00;;;;;;;6.75;3.28;;;16.40;49.90;;;;;;5108486;27;45320;-72
2023/10/18 10:04:32;;;;;;;4.60;3.10;;;16.50;49.90;;;;;;5108815;27;45315;-71
2023/10/18 10:07:27;;;;;;;7.35;3.45;;;16.50;49.80;;;;;;5127043;27;45573;-73
2023/10/18 10:09:48;;;;;;;8.60;2.80;;;16.50;49.80;;;;;;5127064;27;45469;-72
2023/10/18 10:12:16;;;;;;;9.52;3.03;;;16.60;49.70;;;;;;5123905;27;45497;-71
2023/10/18 10:14:43;;;;;;;2.70;2.47;;;16.70;49.60;;;;;;5118016;27;45466;-72
2023/10/18 10:17:11;;;;;;;7.55;2.80;;;16.70;49.40;;;;;;5113733;27;45410;-71
2023/10/18 10:19:40;;;;;;;11.23;2.75;;;16.70;49.50;;;;;;5118268;27;46135;-71
2023/10/18 10:22:08;;;;;;;3.80;2.80;;;16.80;49.50;;;;;;5122309;27;45386;-74
2023/10/18 10:24:35;;;;;;;5.85;2.65;;;16.70;49.60;;;;;;5129113;27;45368;-72
2023/10/18 10:27:28;;;;;;;8.32;3.00;;;16.80;49.70;;;;;;5128836;27;45592;-71
2023/10/18 10:29:56;;;;;;;15.18;3.60;;;16.80;49.50;;;;;;5125813;27;45514;-70
2023/10/18 10:32:24;;;;;;;2.88;2.58;;;16.90;49.50;;;;;;5110723;27;45348;-71
2023/10/18 10:34:54;;;;;;;4.88;2.58;;;16.90;49.30;;;;;;5116226;27;45472;-72
2023/10/18 10:37:23;;;;;;;6.43;2.95;;;16.90;48.90;;;;;;5122490;27;45550;-72
2023/10/18 10:39:50;;;;;;;5.97;4.03;;;16.90;49.30;;;;;;5122585;27;45429;-71
2023/10/18 10:42:42;;;;;;;13.00;4.22;;;16.90;49.50;;;;;;5121003;27;45482;-71
2023/10/18 10:45:14;;;;;;;9.23;3.53;;;17.00;49.40;;;;;;5118657;27;45257;-75
2023/10/18 10:47:44;;;;;;;10.93;3.60;;;17.00;49.40;;;;;;5126531;27;45312;-73
2023/10/18 10:50:11;;;;;;;15.20;3.90;;;17.00;49.40;;;;;;5115178;27;46976;-71
2023/10/18 10:52:40;;;;;;;6.75;3.60;;;17.00;49.30;;;;;;5126831;27;45504;-74
2023/10/18 10:55:19;;;;;;;4.78;2.92;;;17.10;49.50;;;;;;5128499;27;45469;-72
2023/10/18 10:57:47;;;;;;;8.35;3.25;;;17.10;49.40;;;;;;5128469;27;45371;-74
2023/10/18 11:00:36;;;;;;;7.53;3.42;;;17.10;49.40;;;;;;5128263;27;46954;-79
2023/10/18 11:03:22;;;;;;;5.18;3.38;;;17.10;49.50;;;;;;5127184;27;45246;-75
2023/10/18 11:05:51;;;;;;;5.85;3.42;;;17.20;49.40;;;;;;5108187;27;45314;-73
2023/10/18 11:08:19;;;;;;;7.65;3.50;;;17.10;49.10;;;;;;5116736;27;45550;-77
2023/10/18 11:10:46;;;;;;;6.60;3.78;;;17.10;49.20;;;;;;5125989;27;47097;-73
2023/10/18 11:13:15;;;;;;;5.05;3.05;;;17.10;49.30;;;;;;5109605;27;45334;-73
2023/10/18 11:15:42;;;;;;;4.68;3.70;;;17.10;49.30;;;;;;5107380;27;45394;-72
2023/10/18 11:18:20;;;;;;;6.72;3.97;;;17.10;49.00;;;;;;5107501;27;45316;-73
2023/10/18 11:20:58;;;;;;;4.68;3.72;;;17.10;49.70;;;;;;5107277;27;46715;-73
2023/10/18 11:23:29;;;;;;;8.15;3.25;;;17.10;48.90;;;;;;5106819;27;45322;-73
2023/10/18 11:25:57;;;;;;;7.90;3.50;;;17.10;49.60;;;;;;5107306;27;45339;-73
2023/10/18 11:28:29;;;;;;;5.25;3.40;;;17.10;49.30;;;;;;5104856;27;45239;-74
2023/10/18 11:30:57;;;;;;;5.43;3.80;;;17.10;48.90;;;;;;5107142;27;45378;-75
2023/10/18 11:33:46;;;;;;;10.48;3.53;;;17.10;48.90;;;;;;5114307;27;45342;-73
2023/10/18 11:36:18;;;;;;;10.65;3.58;;;17.10;48.90;;;;;;5109559;27;45300;-73
2023/10/18 11:39:07;;;;;;;7.28;3.42;;;17.10;48.90;;;;;;5107204;27;45307;-74
2023/10/18 11:41:35;;;;;;;3.63;2.78;;;17.10;48.70;;;;;;5106727;27;45412;-73
2023/10/18 11:44:06;;;;;;;5.00;3.25;;;17.10;48.70;;;;;;5106762;27;45295;-73
2023/10/18 11:46:46;;;;;;;3.78;3.00;;;17.10;48.80;;;;;;5106843;27;45398;-73
2023/10/18 11:49:14;;;;;;;5.38;3.25;;;17.10;48.70;;;;;;5106563;27;45418;-74
2023/10/18 11:51:44;;;;;;;8.30;3.80;;;17.00;48.70;;;;;;5107049;27;45541;-71
2023/10/18 11:54:12;;;;;;;3.92;3.20;;;17.00;48.80;;;;;;5106616;27;45221;-73
2023/10/18 11:56:39;;;;;;;7.93;4.00;;;17.00;49.40;;;;;;5107457;27;45259;-74
2023/10/18 11:59:07;;;;;;;5.55;3.63;;;17.10;48.90;;;;;;5107545;27;45291;-74
2023/10/18 12:01:34;;;;;;;6.38;3.05;;;17.10;48.80;;;;;;5106282;27;45802;-72
2023/10/18 12:04:01;;;;;;;7.43;3.90;;;17.10;48.70;;;;;;5106507;27;45252;-72
2023/10/18 12:06:28;;;;;;;5.82;3.85;;;17.10;48.70;;;;;;5121783;27;45504;-72
2023/10/18 12:11:51;;;;;;;7.65;3.92;;;17.10;49.20;;;;;;5040802;28;46605;-71
2023/10/18 12:14:22;;;;;;;9.45;4.20;;;17.20;49.30;;;;;;5093609;27;45523;-78
2023/10/18 12:16:49;;;;;;;8.80;4.25;;;17.20;49.20;;;;;;5122241;27;45363;-69
2023/10/18 12:19:17;;;;;;;7.00;3.75;;;17.20;49.30;;;;;;5122000;27;45466;-74
2023/10/18 12:21:48;;;;;;;8.40;4.57;;;17.20;49.20;;;;;;5123281;27;46701;-73
2023/10/18 12:24:15;;;;;;;7.82;4.90;;;17.20;49.30;;;;;;5127085;27;46090;-73
2023/10/18 12:26:45;;;;;;;10.80;5.13;;;17.10;49.40;;;;;;5108782;27;45321;-71
2023/10/18 12:29:16;;;;;;;6.95;5.88;;;17.10;49.40;;;;;;5126689;27;45335;-73
2023/10/18 12:31:52;;;;;;;12.55;8.85;;;17.20;49.30;;;;;;5120743;27;46549;-68
2023/10/18 12:34:21;;;;;;;15.73;11.80;;;17.20;49.20;;;;;;5109768;27;45354;-71
2023/10/18 12:36:49;;;;;;;12.43;6.20;;;17.30;49.20;;;;;;5126699;27;45435;-73
2023/10/18 12:39:21;;;;;;;11.95;6.53;;;17.40;49.30;;;;;;5125381;27;45486;-69
2023/10/18 12:41:53;;;;;;;9.68;6.60;;;17.40;49.40;;;;;;5124298;27;45733;-76
2023/10/18 12:44:21;;;;;;;12.10;8.32;;;17.40;49.20;;;;;;5126374;27;45391;-72
2023/10/18 12:46:53;;;;;;;17.17;11.57;;;17.40;49.20;;;;;;5125755;27;45513;-70
2023/10/18 12:49:23;;;;;;;15.23;12.50;;;17.40;49.60;;;;;;5126534;27;45390;-71
2023/10/18 12:51:59;;;;;;;18.00;10.82;;;17.50;49.60;;;;;;5125571;27;45490;-76
2023/10/18 12:54:33;;;;;;;16.67;11.30;;;17.60;49.60;;;;;;5126474;27;45283;-72
2023/10/18 12:57:09;;;;;;;12.85;9.73;;;17.60;49.50;;;;;;5123398;27;45368;-79
2023/10/18 12:59:52;;;;;;;19.13;12.15;;;17.70;49.60;;;;;;5126678;27;45322;-72
2023/10/18 13:05:03;;;;;;;19.33;13.10;;;17.80;49.40;;;;;;5128119;27;45501;-72
2023/10/18 13:07:31;;;;;;;21.52;14.05;;;18.00;49.80;;;;;;5130081;27;45232;-78
2023/10/18 13:09:58;;;;;;;19.35;11.93;;;18.10;49.10;;;;;;5128801;27;45505;-75
2023/10/18 13:12:30;;;;;;;17.77;12.40;;;18.20;49.30;;;;;;5128786;27;45442;-72
2023/10/18 13:15:00;;;;;;;21.73;14.82;;;18.20;49.30;;;;;;5129760;27;45298;-72